Norden-Norddeich Airport

EDWS · Niedersachsen, Alemania

METAR pasados EDWS · Norden-Norddeich Airport

A continuación puedes ver los METAR de los últimos días. Selecciona un año para ver los METAR más antiguos, desde el año 2007 en adelante.

30 de marzo de 2023

Hora Código Tiempo Temp. Visibilidad Cielo nuboso Viento METAR/SPECI
10:25
M
12 °C 10 km+ 1.600 ft 230° 230° 19 kt METAR EHGG 300825Z AUTO 23019KT 210V270 9999 BKN016 OVC019 12/09 Q1002 REDZ TEMPO 7000 -SHRA FEW020CB
09:55
M
12 °C 10 km+ 1.600 ft 230° 230° 19 kt METAR EHGG 300755Z AUTO 23019KT 9999 BKN016/// OVC021/// 12/09 Q1001 REDZ TEMPO 7000 -SHRA FEW020CB
09:25
M
12 °C 10 km+ 1.500 ft 230° 230° 15 kt METAR EHGG 300725Z AUTO 23015KT 200V270 9999 BKN015 OVC019 12/10 Q1001 TEMPO 7000 -SHRA FEW020CB
08:55
M
12 °C 10 km+ 1.700 ft 220° 220° 13 kt METAR EHGG 300655Z AUTO 22013KT 9999 BKN017 OVC023 12/10 Q1001 NOSIG
08:25
V
12 °C 10 km+ 3.700 ft 210° 210° 13 kt METAR EHGG 300625Z AUTO 21013KT 9999 SCT032 BKN037 BKN042 12/10 Q1001 TEMPO 7000 -SHRA FEW040CB
07:55
M
12 °C 10 km+ 2.100 ft 210° 210° 12 kt METAR EHGG 300555Z AUTO 21012KT 9999 FEW015CB BKN021 BKN024 12/10 Q1001 TEMPO 7000 -SHRA FEW040CB
07:25
M
12 °C 10 km+ 2.000 ft 220° 220° 13 kt METAR EHGG 300525Z AUTO 22013KT 190V250 9999 SCT017 BKN020 OVC042 12/10 Q1001 TEMPO 7000 -SHRA FEW040CB
06:55
V
12 °C 10 km+ 4.600 ft 210° 210° 10 kt METAR EHGG 300455Z AUTO 21010KT 9999 BKN046 12/09 Q1001 NOSIG
06:25
V
12 °C 10 km+ - 210° 210° 10 kt METAR EHGG 300425Z AUTO 21010KT 9999 SCT022/// 12/09 Q1001 NOSIG
05:55
M
12 °C 10 km+ 2.300 ft 220° 220° 12 kt METAR EHGG 300355Z AUTO 22012KT 9999 SCT020 BKN023 OVC028 12/10 Q1001
05:25
M
12 °C 10 km+ 1.900 ft 220° 220° 10 kt METAR EHGG 300325Z AUTO 22010KT 9999 BKN019 12/09 Q1002
04:55
M
12 °C 10 km+ 2.000 ft 200° 200° 8 kt METAR EHGG 300255Z AUTO 20008KT 170V230 9999 OVC020 12/09 Q1002
04:25
M
12 °C 10 km+ 2.100 ft 200° 200° 9 kt METAR EHGG 300225Z AUTO 20009KT 180V240 9999 -DZ FEW015CB BKN021 OVC026 12/09 Q1002 REDZ
03:55
V
12 °C 10 km+ - 200° 200° 9 kt METAR EHGG 300155Z AUTO 20009KT 170V240 9999 -DZ FEW015CB 12/09 Q1002 REDZ
03:25
V
12 °C 10 km+ - 190° 190° 8 kt METAR EHGG 300125Z AUTO 19008KT 150V220 9999 NSC 12/10 Q1003
02:55
V
12 °C 10 km+ - 180° 180° 8 kt METAR EHGG 300055Z AUTO 18008KT 150V210 9999 NSC 12/10 Q1003
02:25
V
12 °C 10 km+ - 170° 170° 9 kt METAR EHGG 300025Z AUTO 17009KT 150V210 9999 NSC 12/10 Q1003
01:55
V
11 °C 10 km+ - 170° 170° 6 kt METAR EHGG 292355Z AUTO 17006KT 130V230 9999 DZ FEW015CB 11/10 Q1004
01:25
V
11 °C 10 km+ - 150° 150° 8 kt METAR EHGG 292325Z AUTO 15008KT 120V180 9999 FEW015CB 11/10 Q1004 REDZ
00:55
V
11 °C 10 km+ 4.900 ft 160° 160° 7 kt METAR EHGG 292255Z AUTO 16007KT 130V190 9999 FEW015CB BKN049 11/09 Q1005
00:25
V
11 °C 10 km+ - 150° 150° 7 kt METAR EHGG 292225Z AUTO 15007KT 110V200 9999 NSC 11/09 Q1005

29 de marzo de 2023

Hora Código Tiempo Temp. Visibilidad Cielo nuboso Viento METAR/SPECI
23:55
V
11 °C 10 km+ - 150° 150° 7 kt METAR EHGG 292155Z AUTO 15007KT 110V170 9999 NSC 11/09 Q1006
23:25
V
11 °C 10 km+ - 140° 140° 8 kt METAR EHGG 292125Z AUTO 14008KT 100V180 9999 NSC 11/09 Q1006
22:55
M
11 °C 10 km+ 2.600 ft 140° 140° 7 kt METAR EHGG 292055Z AUTO 14007KT 9999 BKN026 BKN029 BKN034 11/10 Q1007 BECMG 9999
22:25
V
11 °C 9 km - 140° 140° 6 kt METAR EHGG 292025Z AUTO 14006KT 110V180 9000 FEW034 11/10 Q1007 BECMG 9999
21:55
M
11 °C 9 km 2.400 ft 150° 150° 7 kt METAR EHGG 291955Z AUTO 15007KT 9000 BKN024 OVC027 11/10 Q1008 BECMG 9999
21:25
M
10 °C 7 km 2.400 ft 140° 140° 7 kt METAR EHGG 291925Z AUTO 14007KT 110V180 7000 OVC024 10/10 Q1008 BECMG 9999
20:55
M
10 °C 6 km 2.500 ft 160° 160° 5 kt METAR EHGG 291855Z AUTO 16005KT 120V190 6000 DZ SCT022 BKN025 OVC034 10/10 Q1009 BECMG 9999
20:25
M
11 °C 7 km 3.900 ft 180° 180° 6 kt METAR EHGG 291825Z AUTO 18006KT 140V200 7000 DZRA FEW025 SCT028 BKN039 11/09 Q1009 REDZ BECMG 9999
19:55
V
11 °C 10 km+ - 190° 190° 7 kt METAR EHGG 291755Z AUTO 19007KT 160V220 9999 -SHRA NSC 11/09 Q1009 REDZ TEMPO 7000 -RADZ
19:25
V
11 °C 10 km+ - 190° 190° 10 kt METAR EHGG 291725Z AUTO 19010KT 9999 DZ NSC 11/09 Q1009 TEMPO 7000 -RADZ
18:55
M
12 °C 10 km+ 2.900 ft 190° 190° 10 kt METAR EHGG 291655Z AUTO 19010KT 9999 -RADZ FEW017 SCT021 BKN029 12/09 Q1009 TEMPO 7000 -RADZ
18:25
M
13 °C 10 km+ 2.100 ft 210° 210° 9 kt METAR EHGG 291625Z AUTO 21009KT 180V240 9999 BKN021 BKN025 OVC032 13/08 Q1010 NOSIG
17:55
V
13 °C 10 km+ 3.400 ft 190° 190° 9 kt METAR EHGG 291555Z AUTO 19009KT 9999 FEW024 SCT030 OVC034 13/09 Q1010 NOSIG
17:25
V
13 °C 10 km+ 3.100 ft 180° 180° 10 kt METAR EHGG 291525Z AUTO 18010KT 160V230 9999 FEW023 SCT027 BKN031 13/08 Q1010 NOSIG
16:55
V
13 °C 10 km+ 3.400 ft 200° 200° 10 kt METAR EHGG 291455Z AUTO 20010KT 170V230 9999 FEW024 BKN034 OVC039 13/08 Q1011 NOSIG
16:25
V
13 °C 10 km+ - 210° 210° 11 kt METAR EHGG 291425Z AUTO 21011KT 9999 FEW022 13/08 Q1011 NOSIG
15:55
V
13 °C 10 km+ 4.400 ft 220° 220° 11 kt METAR EHGG 291355Z AUTO 22011KT 180V240 9999 SCT021 OVC044 13/08 Q1011 NOSIG
15:25
V
13 °C 10 km+ 4.600 ft 230° 230° 12 kt METAR EHGG 291325Z AUTO 23012KT 9999 OVC046 13/08 Q1012 NOSIG
14:55
M
13 °C 10 km+ 2.000 ft 210° 210° 12 kt METAR EHGG 291255Z AUTO 21012KT 170V240 9999 BKN020 BKN024 OVC048 13/08 Q1012 NOSIG
14:25
V
13 °C 10 km+ - 220° 220° 11 kt METAR EHGG 291225Z AUTO 22011KT 170V250 9999 NSC 13/09 Q1012 NOSIG
13:55
M
12 °C 10 km+ 1.600 ft 210° 210° 14 kt METAR EHGG 291155Z AUTO 21014KT 9999 BKN016 12/08 Q1012 TEMPO BKN014
13:25
V
11 °C 10 km+ - 200° 200° 13 kt METAR EHGG 291125Z AUTO 20013KT 170V230 9999 NSC 11/08 Q1012 TEMPO BKN014
12:55
M
10 °C 10 km+ 1.400 ft 220° 220° 11 kt METAR EHGG 291055Z AUTO 22011KT 180V240 9999 BKN014 10/07 Q1012 NOSIG
12:25
M
10 °C 10 km+ 1.300 ft 200° 200° 11 kt METAR EHGG 291025Z AUTO 20011KT 9999 OVC013 10/07 Q1012 NOSIG
11:55
M
9 °C 10 km+ 1.100 ft 210° 210° 10 kt METAR EHGG 290955Z AUTO 21010KT 9999 OVC011 09/07 Q1012 NOSIG
11:25
V
8 °C 10 km+ - 200° 200° 10 kt METAR EHGG 290925Z AUTO 20010KT 170V230 9999 ////// 08/06 Q1013 TEMPO 6000 -DZ
10:55
M
8 °C 10 km+ 1.200 ft 200° 200° 10 kt METAR EHGG 290855Z AUTO 20010KT 170V230 9999 OVC012 08/06 Q1013 TEMPO 6000 -DZ
10:25
M
7 °C 10 km+ 1.300 ft 200° 200° 9 kt METAR EHGG 290825Z AUTO 20009KT 170V230 9999 OVC013 07/05 Q1013 TEMPO 6000 -DZ
09:55
M
6 °C 10 km+ 1.400 ft 190° 190° 9 kt METAR EHGG 290755Z AUTO 19009KT 9999 BKN014 OVC017 06/05 Q1013 BECMG BKN013 TEMPO 6000 -DZ
09:25
V
6 °C 10 km+ 3.400 ft 190° 190° 8 kt METAR EHGG 290725Z AUTO 19008KT 160V220 9999 SCT015 SCT020 OVC034 06/05 Q1013 BECMG BKN013 TEMPO 6000 -DZ
08:55
M
6 °C 5 km 1.500 ft 200° 200° 7 kt METAR EHGG 290655Z AUTO 20007KT 160V220 5000 -UP OVC015 06/05 Q1013 BECMG BKN013 TEMPO 9999
08:25
M
6 °C 9 km 1.600 ft 200° 200° 8 kt METAR EHGG 290625Z AUTO 20008KT 160V230 9000 FEW011/// OVC016/// 06/04 Q1013 BECMG BKN013 TEMPO 6000 -DZ
07:55
M
6 °C 10 km+ 1.500 ft 200° 200° 9 kt METAR EHGG 290555Z AUTO 20009KT 170V230 9999 FEW013 OVC015 06/03 Q1013 BECMG BKN013
07:25
M
6 °C 10 km+ 1.400 ft 190° 190° 8 kt METAR EHGG 290525Z AUTO 19008KT 160V220 9999 OVC014 06/03 Q1013 NOSIG
06:55
M
6 °C 10 km+ 1.500 ft 190° 190° 8 kt METAR EHGG 290455Z AUTO 19008KT 160V230 9999 OVC015 06/03 Q1013 BECMG BKN014
06:25
M
5 °C 10 km+ 1.800 ft 190° 190° 8 kt METAR EHGG 290425Z AUTO 19008KT 150V210 9999 OVC018 05/03 Q1013 NOSIG
05:55
M
5 °C 10 km+ 1.800 ft 180° 180° 8 kt METAR EHGG 290355Z AUTO 18008KT 140V220 9999 OVC018 05/03 Q1013
05:25
M
5 °C 10 km+ 2.400 ft 180° 180° 8 kt METAR EHGG 290325Z AUTO 18008KT 9999 OVC024 05/03 Q1013
04:55
M
5 °C 10 km+ 2.600 ft 180° 180° 8 kt METAR EHGG 290255Z AUTO 18008KT 150V210 9999 SCT022 OVC026 05/03 Q1014
04:25
M
5 °C 10 km+ 2.700 ft 180° 180° 9 kt METAR EHGG 290225Z AUTO 18009KT 9999 OVC027 05/03 Q1014
03:55
V
5 °C 10 km+ 3.500 ft 190° 190° 9 kt METAR EHGG 290155Z AUTO 19009KT 160V220 9999 FEW023 BKN035 OVC041 05/02 Q1015
03:25
V
5 °C 10 km+ 3.200 ft 190° 190° 10 kt METAR EHGG 290125Z AUTO 19010KT 160V220 9999 OVC032 05/02 Q1015
02:55
V
5 °C 10 km+ 4.800 ft 180° 180° 10 kt METAR EHGG 290055Z AUTO 18010KT 150V220 9999 BKN048 05/02 Q1015
02:25
V
5 °C 10 km+ - 180° 180° 9 kt METAR EHGG 290025Z AUTO 18009KT 9999 FEW035/// 05/02 Q1015
01:55
V
5 °C 10 km+ - 190° 190° 10 kt METAR EHGG 282355Z AUTO 19010KT 150V220 9999 FEW038 05/02 Q1016
01:25
V
5 °C 10 km+ - 190° 190° 10 kt METAR EHGG 282325Z AUTO 19010KT 160V240 9999 SCT031 05/03 Q1016
00:55
V
5 °C 10 km+ 4.800 ft 180° 180° 8 kt METAR EHGG 282255Z AUTO 18008KT 150V210 9999 -DZ FEW016 BKN048 05/03 Q1017
00:25
V
5 °C 10 km+ - 180° 180° 8 kt METAR EHGG 282225Z AUTO 18008KT 9999 -DZ FEW033 05/02 Q1017 REDZ

28 de marzo de 2023

Hora Código Tiempo Temp. Visibilidad Cielo nuboso Viento METAR/SPECI
23:55
V
5 °C 10 km+ 4.300 ft 180° 180° 8 kt METAR EHGG 282155Z AUTO 18008KT 140V210 9999 DZ BKN043 OVC047 05/02 Q1017
23:25
V
5 °C 10 km+ 4.400 ft 160° 160° 6 kt METAR EHGG 282125Z AUTO 16006KT 120V190 9999 DZ FEW015CB SCT040 OVC044 05/02 Q1017 NOSIG
22:55
V
5 °C 10 km+ 3.300 ft 150° 150° 5 kt METAR EHGG 282055Z AUTO 15005KT 9999 -RADZ OVC033 05/03 Q1018 NOSIG
22:25
V
5 °C 10 km+ 3.100 ft 170° 170° 6 kt METAR EHGG 282025Z AUTO 17006KT 140V220 9999 -RA OVC031 05/02 Q1018 NOSIG
21:55
V
5 °C 10 km+ 3.100 ft 200° 200° 6 kt METAR EHGG 281955Z AUTO 20006KT 9999 -RA FEW015CB OVC031 05/03 Q1018 REDZRA NOSIG
21:25
V
5 °C 10 km+ 3.500 ft 210° 210° 6 kt METAR EHGG 281925Z AUTO 21006KT 9999 -RA FEW022 BKN035 OVC042 05/03 Q1019 REDZRA NOSIG
20:55
V
5 °C 10 km+ 3.700 ft 210° 210° 9 kt METAR EHGG 281855Z AUTO 21009KT 9999 DZ FEW023 BKN037 OVC044 05/02 Q1019 NOSIG
20:25
V
6 °C 10 km+ 4.400 ft 210° 210° 11 kt METAR EHGG 281825Z AUTO 21011KT 160V250 9999 DZ FEW035 BKN044 06/01 Q1019 NOSIG
19:55
V
6 °C 10 km+ 4.200 ft 200° 200° 7 kt METAR EHGG 281755Z AUTO 20007KT 9999 SCT036 OVC042 06/00 Q1019 NOSIG
19:25
V
6 °C 10 km+ 3.700 ft 190° 190° 8 kt METAR EHGG 281725Z AUTO 19008KT 160V220 9999 FEW031 OVC037 06/M00 Q1020 NOSIG
18:55
V
6 °C 10 km+ 3.400 ft 210° 210° 10 kt METAR EHGG 281655Z AUTO 21010KT 9999 -DZ OVC034 06/M00 Q1020 NOSIG
18:25
V
7 °C 10 km+ 4.000 ft 200° 200° 10 kt METAR EHGG 281625Z AUTO 20010KT 9999 SCT035 BKN040 OVC047 07/M01 Q1020 NOSIG
17:55
V
7 °C 10 km+ 4.000 ft 200° 200° 12 kt METAR EHGG 281555Z AUTO 20012KT 160V230 9999 SCT036 BKN040 07/M02 Q1020 NOSIG
17:25
V
8 °C 10 km+ - 210° 210° 13 kt METAR EHGG 281525Z AUTO 21013KT 180V240 9999 SCT044 08/M01 Q1021 NOSIG
16:55
V
8 °C 10 km+ - 200° 200° 12 kt METAR EHGG 281455Z AUTO 20012KT 150V230 9999 NSC 08/M02 Q1021 NOSIG
16:25
V
8 °C 10 km+ - 200° 200° 12 kt METAR EHGG 281425Z AUTO 20012KT 170V230 9999 FEW041 08/M01 Q1022 NOSIG
15:55
V
8 °C 10 km+ - 200° 200° 12 kt METAR EHGG 281355Z AUTO 20012KT 150V240 9999 SCT040 08/M01 Q1022 NOSIG
15:25
V
8 °C 10 km+ - 200° 200° 11 kt METAR EHGG 281325Z AUTO 20011KT 150V230 9999 SCT042 08/M01 Q1022 NOSIG
14:55
V
8 °C 10 km+ - 200° 200° 13 kt METAR EHGG 281255Z AUTO 20013KT 170V230 9999 NSC 08/M02 Q1023 NOSIG
14:25
V
8 °C 10 km+ - 220° 220° 11 kt METAR EHGG 281225Z AUTO 22011KT 190V270 9999 FEW038 08/M00 Q1023 NOSIG
13:55
V
7 °C 10 km+ - 220° 220° 10 kt METAR EHGG 281155Z AUTO 22010KT 9999 SCT038 SCT045 07/M01 Q1023 NOSIG
13:25
V
7 °C 10 km+ - 200° 200° 11 kt METAR EHGG 281125Z AUTO 20011KT 9999 NSC 07/M01 Q1024 NOSIG
12:55
V
7 °C 10 km+ - 210° 210° 10 kt METAR EHGG 281055Z AUTO 21010KT 9999 FEW041 07/M02 Q1024 NOSIG
12:25
V
7 °C 10 km+ 3.800 ft 220° 220° 11 kt METAR EHGG 281025Z AUTO 22011KT 180V250 9999 BKN038 BKN043 07/M01 Q1024 NOSIG
11:55
V
6 °C 10 km+ 3.800 ft 210° 210° 12 kt METAR EHGG 280955Z AUTO 21012KT 180V270 9999 OVC038 06/M02 Q1025 NOSIG
11:25
V
7 °C 10 km+ - 230° 230° 10 kt METAR EHGG 280925Z AUTO 23010KT 200V260 9999 FEW034 07/M00 Q1025 NOSIG
10:55
V
6 °C 10 km+ 4.000 ft 230° 230° 11 kt METAR EHGG 280855Z AUTO 23011KT 200V260 9999 OVC040 06/00 Q1025 NOSIG
10:25
V
6 °C 10 km+ - 230° 230° 10 kt METAR EHGG 280825Z AUTO 23010KT 200V270 9999 FEW043 06/01 Q1025 NOSIG
09:55
V
5 °C 10 km+ - 220° 220° 7 kt METAR EHGG 280755Z AUTO 22007KT 190V250 9999 NCD 05/01 Q1025 NOSIG

Nosotros y terceros seguimos tu comportamiento en Internet en nuestro sitio web con cookies. Si continúas, asumimos que estás de acuerdo con nuestra Política de cookies.